KTUP/TUP METAR and TAF weather

Enter ICAO airport designator
Station Type Date Time Source
KTUP METAR 2019/12/06 01:53 UTC NOAA

KTUP 060153Z 14006KT 10SM BKN120 13/01 A3010 RMK AO2 SLP191 T01280011 $


Station Type Date Time Source
KTUP Decoded METAR 2019/12/06 01:53 UTC NOAA

TUPELO REGIONAL AIRPORT, MS, United States (KTUP) 34-16N 88-46W 105M
Dec 05, 2019 - 08:53 PM EST / 2019.12.06 0153 UTC
Wind: from the SE (140 degrees) at 7 MPH (6 KT):0
Visibility: 10 mile(s):0
Sky conditions: mostly cloudy
Temperature: 55.0 F (12.8 C)
Dew Point: 34.0 F (1.1 C)
Relative Humidity: 44%
Pressure (altimeter): 30.1 in. Hg (1019 hPa)
ob: KTUP 060153Z 14006KT 10SM BKN120 13/01 A3010 RMK AO2 SLP191 T01280011
cycle: 2

Station Type Date Time Source
KTUP TAF 2019/12/05 18:30 UTC NOAA

TAF KTUP 051729Z 0518/0618 20005KT P6SM BKN120
FM061000 17004KT P6SM VCSH SCT020 OVC060
FM061500 18007KT 5SM -SHRA VCTS BKN015 OVC040CB

Example: see airport list